createdAt,value
2023-04-12T00:00:28.557Z,99538.00
2023-04-12T00:02:59.680Z,99538.25
2023-04-12T00:05:27.628Z,99530.78
2023-04-12T00:07:55.840Z,99523.69
2023-04-12T00:10:23.696Z,99530.38
2023-04-12T00:12:53.677Z,99526.53
2023-04-12T00:15:21.450Z,99535.78
2023-04-12T00:17:49.199Z,99528.72
2023-04-12T00:20:16.981Z,99533.47
2023-04-12T00:22:45.145Z,99532.19
2023-04-12T00:25:12.917Z,99529.88
2023-04-12T00:27:40.761Z,99538.50
2023-04-12T00:30:08.894Z,99534.44
2023-04-12T00:32:36.667Z,99543.31
2023-04-12T00:35:04.711Z,99534.50
2023-04-12T00:37:32.758Z,99532.44
2023-04-12T00:40:02.767Z,99539.72
2023-04-12T00:42:30.609Z,99540.16
2023-04-12T00:45:01.212Z,99534.38
2023-04-12T00:47:30.598Z,99539.09
2023-04-12T00:49:59.452Z,99533.09
2023-04-12T00:52:34.448Z,99528.00
2023-04-12T00:55:05.819Z,99531.63
2023-04-12T00:57:38.668Z,99529.06
2023-04-12T01:00:13.102Z,99526.72
2023-04-12T01:02:50.714Z,99523.94
2023-04-12T01:05:24.096Z,99522.78
2023-04-12T01:08:05.226Z,99517.59
2023-04-12T01:10:47.478Z,99520.78
2023-04-12T01:13:41.154Z,99526.31
2023-04-12T01:16:15.402Z,99520.47
2023-04-12T01:18:46.082Z,99511.22
2023-04-12T01:21:20.353Z,99509.53
2023-04-12T01:24:08.201Z,99518.53
2023-04-12T01:26:42.713Z,99514.09
2023-04-12T01:29:14.130Z,99523.19
2023-04-12T01:31:51.669Z,99509.66
2023-04-12T01:34:20.807Z,99504.31
2023-04-12T01:36:49.326Z,99511.16
2023-04-12T01:39:17.070Z,99513.72
2023-04-12T01:41:49.243Z,99509.41
2023-04-12T01:44:18.101Z,99498.09
2023-04-12T01:46:47.802Z,99500.59
2023-04-12T01:49:16.590Z,99507.34
2023-04-12T01:51:52.504Z,99502.72
2023-04-12T01:54:23.574Z,99500.75
2023-04-12T01:56:59.610Z,99498.81
2023-04-12T01:59:31.332Z,99499.31
2023-04-12T02:01:59.172Z,99495.72
2023-04-12T02:04:28.045Z,99495.56
2023-04-12T02:06:56.687Z,99501.38
2023-04-12T02:09:24.519Z,99494.53
2023-04-12T02:11:52.317Z,99491.97
2023-04-12T02:14:20.024Z,99485.75
2023-04-12T02:16:48.362Z,99491.34
2023-04-12T02:19:16.622Z,99494.31
2023-04-12T02:21:45.789Z,99497.31
2023-04-12T02:24:13.671Z,99493.28
2023-04-12T02:26:41.732Z,99489.94
2023-04-12T02:29:12.472Z,99495.75
2023-04-12T02:31:41.613Z,99493.00
2023-04-12T02:34:13.536Z,99498.47
2023-04-12T02:36:47.798Z,99490.13
2023-04-12T02:39:18.904Z,99501.13
2023-04-12T02:41:49.069Z,99493.84
2023-04-12T02:44:17.676Z,99485.47
2023-04-12T02:46:55.338Z,99491.84
2023-04-12T02:49:23.735Z,99500.16
2023-04-12T02:51:52.117Z,99495.75
2023-04-12T02:54:24.815Z,99475.75
2023-04-12T02:56:55.960Z,99492.13
2023-04-12T02:59:46.450Z,99496.03
2023-04-12T03:02:43.036Z,99500.00
2023-04-12T03:05:34.655Z,99497.47
2023-04-12T03:08:02.867Z,99497.09
2023-04-12T03:10:38.576Z,99493.88
2023-04-12T03:13:06.919Z,99491.34
2023-04-12T03:15:40.031Z,99491.28
2023-04-12T03:18:08.119Z,99489.97
2023-04-12T03:20:47.457Z,99479.50
2023-04-12T03:23:16.627Z,99481.06
2023-04-12T03:25:47.824Z,99480.00
2023-04-12T03:28:35.049Z,99477.00
2023-04-12T03:31:05.848Z,99485.78
2023-04-12T03:33:40.783Z,99484.56
2023-04-12T03:36:18.654Z,99486.13
2023-04-12T03:38:52.175Z,99483.41
2023-04-12T03:41:22.851Z,99481.16
2023-04-12T03:43:50.859Z,99484.31
2023-04-12T03:46:20.269Z,99482.38
2023-04-12T03:48:58.153Z,99493.13
2023-04-12T03:51:27.190Z,99491.94
2023-04-12T03:54:02.933Z,99490.47
2023-04-12T03:56:38.876Z,99483.03
2023-04-12T03:59:12.184Z,99487.75
2023-04-12T04:01:41.674Z,99488.44
2023-04-12T04:04:09.820Z,99490.13
2023-04-12T04:06:38.915Z,99491.34
2023-04-12T04:09:07.499Z,99488.69
2023-04-12T04:11:38.251Z,99476.56
2023-04-12T04:14:08.849Z,99492.72
2023-04-12T04:16:37.283Z,99482.84
2023-04-12T04:19:07.615Z,99487.88
2023-04-12T04:21:35.546Z,99487.28
2023-04-12T04:24:07.181Z,99501.41
2023-04-12T04:26:39.825Z,99496.81
2023-04-12T04:29:21.472Z,99489.88
2023-04-12T04:31:50.328Z,99498.06
2023-04-12T04:34:19.343Z,99492.53
2023-04-12T04:36:49.361Z,99482.25
2023-04-12T04:39:27.370Z,99487.47
2023-04-12T04:41:57.708Z,99500.50
2023-04-12T04:44:47.850Z,99487.06
2023-04-12T04:47:16.690Z,99484.78
2023-04-12T04:49:45.362Z,99485.56
2023-04-12T04:52:26.209Z,99489.63
2023-04-12T04:54:59.309Z,99478.63
2023-04-12T04:57:33.369Z,99479.09
2023-04-12T05:00:02.126Z,99485.97
2023-04-12T05:02:31.922Z,99490.06
2023-04-12T05:05:04.514Z,99488.63
2023-04-12T05:07:34.213Z,99491.41
2023-04-12T05:10:03.688Z,99487.44
2023-04-12T05:12:34.291Z,99485.69
2023-04-12T05:17:34.738Z,99485.06
2023-04-12T05:20:03.090Z,99483.22
2023-04-12T05:22:31.239Z,99490.50
2023-04-12T05:24:59.600Z,99488.28
2023-04-12T05:27:31.265Z,99488.75
2023-04-12T05:30:00.579Z,99489.53
2023-04-12T05:32:28.581Z,99489.16
2023-04-12T05:34:56.747Z,99487.13
2023-04-12T05:37:24.988Z,99496.44
2023-04-12T05:39:53.263Z,99487.50
2023-04-12T05:42:21.030Z,99496.44
2023-04-12T05:44:50.047Z,99498.59
2023-04-12T05:47:19.033Z,99493.28
2023-04-12T05:49:47.250Z,99493.50
2023-04-12T05:52:15.685Z,99501.91
2023-04-12T05:54:43.864Z,99488.59
2023-04-12T05:57:17.913Z,99491.97
2023-04-12T05:59:48.660Z,99498.28
2023-04-12T06:02:16.782Z,99493.09
2023-04-12T06:04:50.875Z,99492.91
2023-04-12T06:07:23.055Z,99491.56
2023-04-12T06:09:53.092Z,99492.53
2023-04-12T06:12:23.398Z,99485.19
2023-04-12T06:14:51.454Z,99490.03
2023-04-12T06:17:19.904Z,99491.50
2023-04-12T06:19:48.035Z,99487.97
2023-04-12T06:22:16.161Z,99488.09
2023-04-12T06:24:46.929Z,99485.47
2023-04-12T06:27:14.840Z,99491.19
2023-04-12T06:29:42.728Z,99485.47
2023-04-12T06:32:11.015Z,99482.44
2023-04-12T06:34:38.956Z,99488.16
2023-04-12T06:37:13.024Z,99480.66
2023-04-12T06:39:41.088Z,99476.34
2023-04-12T06:42:08.921Z,99478.72
2023-04-12T06:44:40.520Z,99480.56
2023-04-12T06:47:08.468Z,99474.47
2023-04-12T06:49:36.582Z,99478.63
2023-04-12T06:52:04.661Z,99488.31
2023-04-12T06:54:33.686Z,99493.59
2023-04-12T06:57:02.132Z,99483.00
2023-04-12T06:59:30.055Z,99487.00
2023-04-12T07:01:57.975Z,99479.81
2023-04-12T07:04:25.931Z,99486.03
2023-04-12T07:06:53.863Z,99475.78
2023-04-12T07:09:21.702Z,99483.06
2023-04-12T07:11:49.540Z,99482.44
2023-04-12T07:14:17.485Z,99483.69
2023-04-12T07:16:45.336Z,99478.50
2023-04-12T07:19:13.437Z,99479.56
2023-04-12T07:21:41.624Z,99481.25
2023-04-12T07:24:09.483Z,99489.81
2023-04-12T07:26:39.108Z,99482.16
2023-04-12T07:29:06.972Z,99481.00
2023-04-12T07:31:35.993Z,99480.09
2023-04-12T07:34:03.820Z,99472.03
2023-04-12T07:36:31.983Z,99479.84
2023-04-12T07:39:00.148Z,99485.91
2023-04-12T07:41:28.927Z,99487.25
2023-04-12T07:44:15.568Z,99486.00
2023-04-12T07:46:43.299Z,99477.75
2023-04-12T07:49:11.247Z,99483.56
2023-04-12T07:51:39.048Z,99481.50
2023-04-12T07:54:06.940Z,99491.38
2023-04-12T07:56:35.792Z,99474.22
2023-04-12T07:59:03.623Z,99482.03
2023-04-12T08:01:31.855Z,99477.28
2023-04-12T08:04:09.092Z,99467.72
2023-04-12T08:06:37.633Z,99472.16
2023-04-12T08:09:05.504Z,99464.31
2023-04-12T08:11:35.544Z,99469.72
2023-04-12T08:14:03.444Z,99461.69
2023-04-12T08:16:32.626Z,99471.50
2023-04-12T08:19:00.526Z,99456.84
2023-04-12T08:21:29.672Z,99449.78
2023-04-12T08:23:57.671Z,99460.09
2023-04-12T08:26:26.793Z,99456.63
2023-04-12T08:28:54.576Z,99461.59
2023-04-12T08:31:23.117Z,99454.88
2023-04-12T08:33:51.271Z,99468.16
2023-04-12T08:36:19.321Z,99456.66
2023-04-12T08:38:47.400Z,99463.41
2023-04-12T08:41:15.552Z,99445.75
2023-04-12T08:43:47.570Z,99459.78
2023-04-12T08:46:16.726Z,99458.66
2023-04-12T08:48:49.827Z,99448.56
2023-04-12T08:51:19.130Z,99451.03
2023-04-12T08:53:47.315Z,99457.00
2023-04-12T08:56:17.965Z,99463.53
2023-04-12T08:58:49.231Z,99447.53
2023-04-12T09:01:18.782Z,99452.66
2023-04-12T09:03:47.173Z,99447.19
2023-04-12T09:06:15.112Z,99437.88
2023-04-12T09:08:56.650Z,99429.66
2023-04-12T09:11:28.417Z,99430.31
2023-04-12T09:13:58.451Z,99434.06
2023-04-12T09:16:40.847Z,99453.06
2023-04-12T09:19:09.091Z,99435.16
2023-04-12T09:21:37.379Z,99436.41
2023-04-12T09:24:11.777Z,99422.00
2023-04-12T09:26:41.388Z,99421.47
2023-04-12T09:29:24.251Z,99432.03
2023-04-12T09:32:06.190Z,99416.28
2023-04-12T09:34:36.073Z,99410.91
2023-04-12T09:37:14.859Z,99416.41
2023-04-12T09:39:43.185Z,99415.91
2023-04-12T09:42:25.568Z,99405.63
2023-04-12T09:45:01.906Z,99396.53
2023-04-12T09:47:41.266Z,99400.97
2023-04-12T09:50:09.952Z,99412.78
2023-04-12T09:52:38.936Z,99404.63
2023-04-12T09:55:11.233Z,99396.53
2023-04-12T09:57:41.533Z,99398.00
2023-04-12T10:00:20.529Z,99399.09
2023-04-12T10:02:51.818Z,99393.41
2023-04-12T10:05:28.157Z,99384.66
2023-04-12T10:07:59.298Z,99389.06
2023-04-12T10:10:31.064Z,99400.69
2023-04-12T10:12:59.575Z,99393.25
2023-04-12T10:15:28.370Z,99380.16
2023-04-12T10:17:59.199Z,99385.25
2023-04-12T10:20:29.300Z,99382.41
2023-04-12T10:22:59.802Z,99378.38
2023-04-12T10:25:31.283Z,99382.66
2023-04-12T10:28:17.638Z,99377.84
2023-04-12T10:30:48.278Z,99375.84
2023-04-12T10:33:17.755Z,99365.56
2023-04-12T10:35:48.807Z,99379.19
2023-04-12T10:38:17.221Z,99371.84
2023-04-12T10:41:13.623Z,99379.81
2023-04-12T10:43:51.390Z,99366.50
2023-04-12T10:46:39.864Z,99369.16
2023-04-12T10:49:09.793Z,99367.13
2023-04-12T10:51:38.048Z,99360.00
2023-04-12T10:54:11.070Z,99348.63
2023-04-12T10:56:40.386Z,99348.09
2023-04-12T10:59:11.926Z,99346.97
2023-04-12T11:02:03.381Z,99342.50
2023-04-12T11:04:31.533Z,99336.31
2023-04-12T11:07:10.156Z,99324.44
2023-04-12T11:09:57.604Z,99326.44
2023-04-12T11:12:29.532Z,99318.19
2023-04-12T11:15:01.440Z,99314.56
2023-04-12T11:17:59.887Z,99323.59
2023-04-12T11:20:28.316Z,99313.44
2023-04-12T11:22:56.076Z,99315.72
2023-04-12T11:25:26.343Z,99300.09
2023-04-12T11:27:55.088Z,99294.50
2023-04-12T11:30:26.190Z,99301.84
2023-04-12T11:32:54.168Z,99305.38
2023-04-12T11:35:27.493Z,99298.63
2023-04-12T11:37:57.640Z,99298.94
2023-04-12T11:40:29.744Z,99301.78
2023-04-12T11:42:57.928Z,99309.34
2023-04-12T11:45:25.777Z,99296.00
2023-04-12T11:47:54.996Z,99297.69
2023-04-12T11:50:30.983Z,99285.75
2023-04-12T11:53:13.401Z,99287.72
2023-04-12T11:55:41.705Z,99281.19
2023-04-12T11:58:09.631Z,99288.22
2023-04-12T12:00:37.750Z,99278.84
2023-04-12T12:03:08.494Z,99280.00
2023-04-12T12:05:40.151Z,99275.97
2023-04-12T12:08:09.164Z,99279.97
2023-04-12T12:10:51.809Z,99269.19
2023-04-12T12:13:20.105Z,99276.63
2023-04-12T12:15:47.960Z,99269.84
2023-04-12T12:18:16.167Z,99252.31
2023-04-12T12:20:53.074Z,99253.75
2023-04-12T12:23:33.558Z,99259.75
2023-04-12T12:26:17.675Z,99248.66
2023-04-12T12:28:51.521Z,99253.81
2023-04-12T12:31:21.684Z,99243.31
2023-04-12T12:33:49.918Z,99234.75
2023-04-12T12:36:21.247Z,99231.84
2023-04-12T12:38:53.387Z,99234.09
2023-04-12T12:41:22.382Z,99242.91
2023-04-12T12:43:54.884Z,99237.53
2023-04-12T12:46:44.630Z,99247.19
2023-04-12T12:49:18.884Z,99229.94
2023-04-12T12:51:47.373Z,99223.13
2023-04-12T12:54:28.350Z,99227.66
2023-04-12T12:57:04.606Z,99212.94
2023-04-12T12:59:32.394Z,99213.25
2023-04-12T13:02:00.301Z,99204.47
2023-04-12T13:04:29.064Z,99216.13
2023-04-12T13:06:57.103Z,99213.25
2023-04-12T13:09:24.843Z,99204.75
2023-04-12T13:11:53.005Z,99212.94
2023-04-12T13:14:21.116Z,99206.13
2023-04-12T13:16:49.455Z,99209.53
2023-04-12T13:19:17.472Z,99197.38
2023-04-12T13:21:45.219Z,99198.22
2023-04-12T13:24:13.074Z,99196.78
2023-04-12T13:26:41.222Z,99198.81
2023-04-12T13:29:09.062Z,99206.72
2023-04-12T13:31:36.922Z,99199.38
2023-04-12T13:34:04.749Z,99192.28
2023-04-12T13:36:33.069Z,99197.97
2023-04-12T13:39:00.969Z,99203.09
2023-04-12T13:41:31.324Z,99197.47
2023-04-12T13:43:59.111Z,99192.59
2023-04-12T13:46:26.861Z,99199.72
2023-04-12T13:48:54.726Z,99191.44
2023-04-12T13:51:22.638Z,99190.28
2023-04-12T13:53:50.356Z,99183.25
2023-04-12T13:56:18.876Z,99192.06
2023-04-12T13:58:46.782Z,99191.44
2023-04-12T14:01:14.706Z,99171.94
2023-04-12T14:03:42.739Z,99190.38
2023-04-12T14:06:10.613Z,99177.91
2023-04-12T14:08:38.625Z,99186.94
2023-04-12T14:11:07.422Z,99179.59
2023-04-12T14:13:35.137Z,99181.59
2023-04-12T14:16:02.843Z,99189.53
2023-04-12T14:18:30.658Z,99187.25
2023-04-12T14:20:59.415Z,99190.44
2023-04-12T14:23:27.840Z,99186.22
2023-04-12T14:25:55.703Z,99188.22
2023-04-12T14:28:27.755Z,99193.03
2023-04-12T14:30:55.641Z,99193.88
2023-04-12T14:33:25.467Z,99196.72
2023-04-12T14:35:53.925Z,99184.75
2023-04-12T14:38:22.856Z,99186.75
2023-04-12T14:40:51.809Z,99178.63
2023-04-12T14:43:19.507Z,99183.06
2023-04-12T14:45:47.281Z,99181.69
2023-04-12T14:48:15.356Z,99182.56
2023-04-12T14:50:43.094Z,99186.25
2023-04-12T14:53:11.333Z,99180.88
2023-04-12T16:23:28.051Z,99156.50
2023-04-12T16:25:56.639Z,99146.94
2023-04-12T16:28:28.834Z,99156.00
2023-04-12T16:31:01.192Z,99150.34
2023-04-12T16:33:29.161Z,99157.41
2023-04-12T16:35:56.994Z,99148.09
2023-04-12T16:38:24.808Z,99151.78
2023-04-12T16:40:52.757Z,99159.13
2023-04-12T16:43:20.579Z,99156.03
2023-04-12T16:45:49.372Z,99159.72
2023-04-12T16:48:19.734Z,99166.19
2023-04-12T16:50:48.555Z,99162.81
2023-04-12T16:53:17.046Z,99158.00
2023-04-12T16:55:47.804Z,99151.78
2023-04-12T16:58:16.067Z,99159.69
2023-04-12T17:00:45.970Z,99163.34
2023-04-12T17:03:14.113Z,99161.69
2023-04-12T17:05:43.622Z,99161.09
2023-04-12T17:08:11.592Z,99169.88
2023-04-12T17:10:39.543Z,99169.00
2023-04-12T17:13:08.271Z,99174.41
2023-04-12T17:15:36.633Z,99182.56
2023-04-12T17:18:07.413Z,99174.63
2023-04-12T17:20:38.309Z,99183.09
2023-04-12T17:23:07.399Z,99187.31
2023-04-12T17:25:36.015Z,99190.13
2023-04-12T17:28:03.977Z,99187.00
2023-04-12T17:30:31.999Z,99181.88
2023-04-12T17:33:01.793Z,99186.41
2023-04-12T17:35:29.939Z,99190.34
2023-04-12T17:37:57.936Z,99197.97
2023-04-12T17:40:25.811Z,99195.41
2023-04-12T17:42:53.587Z,99195.97
2023-04-12T17:45:22.084Z,99195.97
2023-04-12T17:47:51.697Z,99188.94
2023-04-12T17:50:22.489Z,99193.47
2023-04-12T17:52:50.324Z,99191.19
2023-04-12T17:55:25.500Z,99195.19
2023-04-12T17:57:53.273Z,99190.69
2023-04-12T18:00:22.336Z,99195.47
2023-04-12T18:02:52.924Z,99198.28
2023-04-12T18:05:20.998Z,99191.22
2023-04-12T18:07:49.917Z,99199.97
2023-04-12T18:10:21.354Z,99195.47
2023-04-12T18:12:49.405Z,99217.78
2023-04-12T18:15:18.272Z,99214.38
2023-04-12T18:17:46.160Z,99208.75
2023-04-12T18:20:14.299Z,99208.19
2023-04-12T18:22:44.070Z,99215.81
2023-04-12T18:25:12.433Z,99207.34
2023-04-12T18:27:40.469Z,99206.78
2023-04-12T18:30:08.702Z,99211.88
2023-04-12T18:32:36.532Z,99208.78
2023-04-12T18:35:05.106Z,99209.69
2023-04-12T18:37:32.804Z,99208.22
2023-04-12T18:40:00.723Z,99218.66
2023-04-12T18:42:28.493Z,99213.56
2023-04-12T18:44:58.285Z,99213.28
2023-04-12T18:47:28.895Z,99221.19
2023-04-12T18:49:56.723Z,99216.63
2023-04-12T18:52:24.439Z,99222.53
2023-04-12T18:54:52.239Z,99224.75
2023-04-12T18:57:20.125Z,99229.28
2023-04-12T18:59:49.073Z,99221.66
2023-04-12T19:02:18.377Z,99215.13
2023-04-12T19:04:46.279Z,99215.94
2023-04-12T19:07:14.722Z,99213.66
2023-04-12T19:09:42.408Z,99220.16
2023-04-12T19:12:10.152Z,99212.81
2023-04-12T19:14:37.930Z,99210.59
2023-04-12T19:17:05.719Z,99208.91
2023-04-12T19:19:33.437Z,99201.56
2023-04-12T19:22:03.483Z,99198.72
2023-04-12T19:24:31.565Z,99193.06
2023-04-12T19:26:59.934Z,99202.34
2023-04-12T19:29:27.758Z,99196.97
2023-04-12T19:31:55.521Z,99199.75
2023-04-12T19:34:23.424Z,99186.75
2023-04-12T19:36:51.256Z,99190.91
2023-04-12T19:39:25.451Z,99199.91
2023-04-12T19:41:53.709Z,99195.06
2023-04-12T19:44:23.378Z,99185.78
2023-04-12T19:46:52.217Z,99188.53
2023-04-12T19:49:29.614Z,99183.06
2023-04-12T19:54:40.192Z,99190.03
2023-04-12T19:57:08.229Z,99191.75
2023-04-12T19:59:36.959Z,99196.25
2023-04-12T20:02:04.782Z,99191.75
2023-04-12T20:04:33.535Z,99190.66
2023-04-12T20:07:06.762Z,99193.19
2023-04-12T20:09:37.577Z,99178.63
2023-04-12T20:12:08.405Z,99180.69
2023-04-12T20:14:38.399Z,99185.25
2023-04-12T20:17:06.338Z,99188.91
2023-04-12T20:19:34.191Z,99191.97
2023-04-12T20:22:02.114Z,99188.81
2023-04-12T20:24:37.819Z,99203.16
2023-04-12T20:27:06.797Z,99198.84
2023-04-12T20:29:36.406Z,99201.66
2023-04-12T20:32:04.420Z,99196.88
2023-04-12T20:34:32.152Z,99194.56
2023-04-12T20:37:00.170Z,99196.78
2023-04-12T20:39:29.648Z,99191.97
2023-04-12T20:42:01.170Z,99195.31
2023-04-12T20:44:28.929Z,99192.75
2023-04-12T20:46:57.839Z,99204.88
2023-04-12T20:49:30.268Z,99203.47
2023-04-12T20:51:59.504Z,99193.31
2023-04-12T20:54:30.241Z,99200.66
2023-04-12T20:56:59.734Z,99193.00
2023-04-12T20:59:29.703Z,99190.44
2023-04-12T21:04:43.307Z,99193.00
2023-04-12T21:07:11.485Z,99191.56
2023-04-12T21:09:39.536Z,99188.75
2023-04-12T21:12:08.919Z,99197.47
2023-04-12T21:14:37.917Z,99188.75
2023-04-12T21:17:07.393Z,99201.50
2023-04-12T21:19:42.015Z,99201.50
2023-04-12T21:22:09.755Z,99196.44
2023-04-12T21:24:38.640Z,99189.44
2023-04-12T21:27:07.613Z,99192.81
2023-04-12T21:29:41.297Z,99197.00
2023-04-12T21:32:12.484Z,99187.41
2023-04-12T21:34:40.423Z,99185.72
2023-04-12T21:37:08.333Z,99197.84
2023-04-12T21:39:39.777Z,99195.28
2023-04-12T21:42:07.568Z,99190.19
2023-04-12T21:44:35.364Z,99189.34
2023-04-12T21:47:03.064Z,99182.56
2023-04-12T21:49:31.324Z,99191.88
2023-04-12T21:51:59.468Z,99194.13
2023-04-12T21:54:31.466Z,99198.84
2023-04-12T21:56:59.357Z,99190.63
2023-04-12T21:59:27.089Z,99193.09
2023-04-12T22:01:54.860Z,99185.47
2023-04-12T22:04:22.532Z,99189.66
2023-04-12T22:06:52.891Z,99182.25
2023-04-12T22:09:20.720Z,99188.38
2023-04-12T22:11:49.197Z,99177.34
2023-04-12T22:14:16.844Z,99185.75
2023-04-12T22:16:45.332Z,99184.56
2023-04-12T22:19:13.353Z,99179.72
2023-04-12T22:21:41.632Z,99174.91
2023-04-12T22:24:10.044Z,99184.41
2023-04-12T22:26:37.939Z,99176.53
2023-04-12T22:29:06.220Z,99174.56
2023-04-12T22:31:34.723Z,99174.22
2023-04-12T22:34:02.569Z,99181.16
2023-04-12T22:36:37.410Z,99180.84
2023-04-12T22:39:05.262Z,99165.28
2023-04-12T22:41:33.347Z,99171.13
2023-04-12T22:44:03.693Z,99167.13
2023-04-12T22:46:32.174Z,99179.16
2023-04-12T22:49:03.350Z,99166.09
2023-04-12T22:51:31.749Z,99171.03
2023-04-12T22:53:59.900Z,99174.88
2023-04-12T22:56:35.088Z,99170.28
2023-04-12T22:59:06.001Z,99170.22
2023-04-12T23:05:00.555Z,99166.63
2023-04-12T23:07:30.271Z,99166.31
2023-04-12T23:09:58.169Z,99170.41
2023-04-12T23:12:25.913Z,99161.03
2023-04-12T23:14:55.760Z,99158.72
2023-04-12T23:17:23.608Z,99162.38
2023-04-12T23:19:51.749Z,99156.94
2023-04-12T23:22:55.005Z,99162.50
2023-04-12T23:25:39.130Z,99166.78
2023-04-12T23:28:15.039Z,99165.00
2023-04-12T23:30:44.499Z,99169.41
2023-04-12T23:33:12.626Z,99170.75
2023-04-12T23:35:41.609Z,99167.97
2023-04-12T23:38:09.701Z,99161.41
2023-04-12T23:40:37.653Z,99162.59
2023-04-12T23:43:05.342Z,99167.13
2023-04-12T23:45:33.131Z,99162.88
2023-04-12T23:48:00.862Z,99159.44
2023-04-12T23:50:29.319Z,99160.22
2023-04-12T23:52:57.347Z,99160.72
2023-04-12T23:55:25.365Z,99167.13
2023-04-12T23:57:53.275Z,99148.13
